Time;durP1;ratioP1;P1;durP2;ratioP2;P2;SDS_P1;SDS_P2;PMS_P1;PMS_P2;Temp;Humidity;BMP_temperature;BMP_pressure;BME280_temperature;BME280_humidity;BME280_pressure;Samples;Min_cycle;Max_cycle;Signal;HPM_P1;HPM_P2
2022/04/18 00:02:22;;;;;;;24.80;10.30;;;;;;;;;;4974572;28;20038;-79
2022/04/18 00:04:48;;;;;;;22.10;11.00;;;;;;;;;;4982981;28;20034;-79
2022/04/18 00:07:14;;;;;;;25.52;10.40;;;;;;;;;;4964528;28;20881;-79
2022/04/18 00:09:40;;;;;;;26.77;10.90;;;;;;;;;;4958711;28;20280;-79
2022/04/18 00:12:06;;;;;;;25.55;11.55;;;;;;;;;;4988589;28;20038;-79
2022/04/18 00:14:32;;;;;;;17.83;10.23;;;;;;;;;;4983909;28;20045;-79
2022/04/18 00:16:58;;;;;;;19.90;10.55;;;;;;;;;;4964806;28;20061;-79
2022/04/18 00:19:24;;;;;;;24.98;10.43;;;;;;;;;;4965149;28;20074;-79
2022/04/18 00:21:51;;;;;;;22.05;10.32;;;;;;;;;;4976384;28;20098;-79
2022/04/18 00:24:19;;;;;;;27.27;10.95;;;;;;;;;;4961020;28;20031;-79
2022/04/18 00:26:46;;;;;;;23.08;11.30;;;;;;;;;;4964760;28;20034;-80
2022/04/18 00:29:12;;;;;;;24.00;11.93;;;;;;;;;;4973594;28;20065;-80
2022/04/18 00:31:38;;;;;;;29.20;11.18;;;;;;;;;;4962869;28;20371;-79
2022/04/18 00:34:05;;;;;;;26.50;12.18;;;;;;;;;;4965618;28;20034;-79
2022/04/18 00:36:31;;;;;;;20.25;11.35;;;;;;;;;;4961693;28;20046;-80
2022/04/18 00:38:57;;;;;;;21.55;11.00;;;;;;;;;;4976647;28;20113;-79
2022/04/18 00:41:23;;;;;;;24.58;11.15;;;;;;;;;;4961573;28;20176;-80
2022/04/18 00:43:50;;;;;;;26.38;11.35;;;;;;;;;;4964954;28;20033;-79
2022/04/18 00:46:18;;;;;;;21.05;10.50;;;;;;;;;;4947273;28;20185;-79
2022/04/18 00:48:44;;;;;;;25.13;10.85;;;;;;;;;;4978284;28;20413;-79
2022/04/18 00:51:11;;;;;;;26.20;12.05;;;;;;;;;;4958230;28;20406;-79
2022/04/18 00:53:39;;;;;;;24.38;11.35;;;;;;;;;;4961295;28;20033;-79
2022/04/18 00:56:08;;;;;;;24.45;10.90;;;;;;;;;;4955796;28;20448;-79
2022/04/18 00:58:35;;;;;;;22.27;11.30;;;;;;;;;;4959975;28;20031;-79
2022/04/18 01:01:01;;;;;;;23.80;12.27;;;;;;;;;;4960514;28;20057;-79
2022/04/18 01:03:30;;;;;;;29.23;11.25;;;;;;;;;;4959488;28;20241;-79
2022/04/18 01:05:57;;;;;;;24.15;11.50;;;;;;;;;;4976613;28;21070;-79
2022/04/18 01:08:25;;;;;;;22.40;10.52;;;;;;;;;;4963868;28;20080;-79
2022/04/18 01:10:51;;;;;;;26.35;12.05;;;;;;;;;;4975515;28;20409;-79
2022/04/18 01:13:17;;;;;;;26.25;11.80;;;;;;;;;;4979376;28;20108;-79
2022/04/18 01:15:43;;;;;;;28.70;13.07;;;;;;;;;;4956060;28;20034;-79
2022/04/18 01:18:09;;;;;;;24.60;11.43;;;;;;;;;;4979511;28;20058;-79
2022/04/18 01:20:35;;;;;;;27.85;12.63;;;;;;;;;;4960187;28;20524;-79
2022/04/18 01:23:02;;;;;;;23.83;10.98;;;;;;;;;;4963926;28;20169;-79
2022/04/18 01:30:57;;;;;;;30.15;11.73;;;;;;;;;;4980047;28;20094;-79
2022/04/18 01:33:24;;;;;;;28.20;12.25;;;;;;;;;;4961294;28;20450;-79
2022/04/18 01:35:50;;;;;;;32.47;12.55;;;;;;;;;;4977094;28;20397;-79
2022/04/18 01:38:16;;;;;;;31.70;12.93;;;;;;;;;;4974120;28;20030;-78
2022/04/18 01:40:42;;;;;;;24.27;12.52;;;;;;;;;;4962818;28;20030;-79
2022/04/18 01:43:08;;;;;;;27.40;12.27;;;;;;;;;;4965577;28;20779;-79
2022/04/18 01:45:37;;;;;;;30.30;12.80;;;;;;;;;;4983525;28;20034;-79
2022/04/18 01:48:03;;;;;;;29.10;12.50;;;;;;;;;;4982630;28;20374;-79
2022/04/18 01:50:29;;;;;;;26.27;12.25;;;;;;;;;;4980706;28;20026;-79
2022/04/18 01:52:55;;;;;;;27.83;13.63;;;;;;;;;;4964023;28;20030;-79
2022/04/18 01:55:21;;;;;;;31.02;14.30;;;;;;;;;;4959126;28;20470;-79
2022/04/18 01:57:48;;;;;;;33.55;14.00;;;;;;;;;;4982429;28;20576;-79
2022/04/18 02:00:14;;;;;;;31.60;14.20;;;;;;;;;;4970046;28;20630;-79
2022/04/18 02:02:40;;;;;;;35.67;15.20;;;;;;;;;;4979068;28;20066;-79
2022/04/18 02:05:09;;;;;;;36.88;14.13;;;;;;;;;;4972902;28;20030;-79
2022/04/18 02:07:35;;;;;;;32.97;15.15;;;;;;;;;;4959935;28;20039;-81
2022/04/18 02:10:02;;;;;;;33.60;13.02;;;;;;;;;;4979705;28;20498;-79
2022/04/18 02:12:28;;;;;;;33.22;14.27;;;;;;;;;;4980678;28;20046;-79
2022/04/18 02:14:54;;;;;;;36.35;13.20;;;;;;;;;;4977223;28;20072;-79
2022/04/18 02:17:20;;;;;;;30.45;13.73;;;;;;;;;;4970977;28;20046;-79
2022/04/18 02:19:46;;;;;;;29.83;13.73;;;;;;;;;;4964850;28;20033;-79
2022/04/18 02:22:15;;;;;;;24.65;12.48;;;;;;;;;;4964304;28;20065;-79
2022/04/18 02:24:41;;;;;;;26.23;12.90;;;;;;;;;;4979137;28;20034;-79
2022/04/18 02:27:09;;;;;;;29.33;12.43;;;;;;;;;;4967380;28;20818;-79
2022/04/18 02:29:35;;;;;;;24.35;12.18;;;;;;;;;;4980783;28;20037;-79
2022/04/18 02:34:46;;;;;;;30.98;12.45;;;;;;;;;;4977784;28;20449;-79
2022/04/18 02:37:12;;;;;;;32.03;14.38;;;;;;;;;;4979176;28;20042;-79
2022/04/18 02:39:38;;;;;;;26.60;12.50;;;;;;;;;;4961651;28;20399;-79
2022/04/18 02:42:04;;;;;;;27.48;12.68;;;;;;;;;;4956507;28;20076;-79
2022/04/18 02:44:37;;;;;;;28.13;12.43;;;;;;;;;;4963256;28;20559;-78
2022/04/18 02:47:03;;;;;;;31.75;12.85;;;;;;;;;;4983600;28;20230;-79
2022/04/18 02:49:30;;;;;;;26.75;13.27;;;;;;;;;;4962468;28;20043;-79
2022/04/18 02:51:56;;;;;;;30.55;13.85;;;;;;;;;;4983286;28;20073;-79
2022/04/18 02:54:23;;;;;;;36.80;13.88;;;;;;;;;;4959924;28;20074;-78
2022/04/18 02:56:49;;;;;;;28.52;13.65;;;;;;;;;;4978616;28;20034;-79
2022/04/18 02:59:15;;;;;;;31.08;12.32;;;;;;;;;;4977944;28;20026;-79
2022/04/18 03:01:41;;;;;;;27.33;12.55;;;;;;;;;;4978994;28;20106;-79
2022/04/18 03:04:07;;;;;;;31.17;12.48;;;;;;;;;;4980546;28;20723;-79
2022/04/18 03:06:33;;;;;;;28.85;13.15;;;;;;;;;;4974404;28;20035;-79
2022/04/18 03:08:59;;;;;;;22.95;11.45;;;;;;;;;;4960793;28;20068;-79
2022/04/18 03:11:25;;;;;;;33.38;13.60;;;;;;;;;;4963160;28;20414;-79
2022/04/18 03:13:51;;;;;;;25.20;12.43;;;;;;;;;;4965874;28;20081;-78
2022/04/18 03:16:18;;;;;;;30.63;13.57;;;;;;;;;;4964511;28;20509;-79
2022/04/18 03:18:44;;;;;;;28.10;12.60;;;;;;;;;;4968685;28;20101;-78
2022/04/18 03:21:12;;;;;;;26.58;11.82;;;;;;;;;;4972465;28;20544;-79
2022/04/18 03:23:39;;;;;;;25.25;11.73;;;;;;;;;;4960357;28;20117;-79
2022/04/18 03:26:06;;;;;;;27.92;12.05;;;;;;;;;;4977609;28;20744;-79
2022/04/18 03:28:34;;;;;;;26.67;12.40;;;;;;;;;;4959367;28;20030;-79
2022/04/18 03:31:00;;;;;;;27.80;11.00;;;;;;;;;;4962444;28;20307;-79
2022/04/18 03:33:26;;;;;;;25.63;12.30;;;;;;;;;;4962769;28;20078;-79
2022/04/18 03:41:21;;;;;;;24.25;12.20;;;;;;;;;;4976080;28;20042;-79
2022/04/18 03:43:47;;;;;;;24.55;11.48;;;;;;;;;;4980901;28;20030;-79
2022/04/18 03:46:13;;;;;;;25.30;10.90;;;;;;;;;;4962928;28;20027;-79
2022/04/18 03:48:39;;;;;;;27.45;12.23;;;;;;;;;;4960896;28;20080;-79
2022/04/18 03:51:05;;;;;;;25.05;10.98;;;;;;;;;;4978548;28;20026;-79
2022/04/18 03:53:31;;;;;;;22.83;11.13;;;;;;;;;;4975178;28;20406;-79
2022/04/18 03:55:57;;;;;;;25.55;11.85;;;;;;;;;;4976143;28;20035;-78
2022/04/18 03:58:24;;;;;;;30.30;12.45;;;;;;;;;;4975211;28;20030;-79
2022/04/18 04:00:50;;;;;;;23.60;10.75;;;;;;;;;;4963452;28;20073;-79
2022/04/18 04:03:16;;;;;;;25.35;11.23;;;;;;;;;;4963555;28;20398;-78
2022/04/18 04:05:42;;;;;;;21.67;11.48;;;;;;;;;;4962143;28;20054;-79
2022/04/18 04:08:08;;;;;;;30.95;13.35;;;;;;;;;;4975895;28;20134;-79
2022/04/18 04:10:34;;;;;;;23.80;11.23;;;;;;;;;;4962870;28;20036;-78
2022/04/18 04:13:00;;;;;;;22.30;11.98;;;;;;;;;;4965172;28;20042;-79
2022/04/18 04:15:33;;;;;;;29.90;11.88;;;;;;;;;;4966373;28;20659;-79
2022/04/18 04:17:59;;;;;;;24.80;12.48;;;;;;;;;;4964668;28;20055;-79
2022/04/18 04:20:25;;;;;;;25.63;11.82;;;;;;;;;;4974632;28;20386;-79
2022/04/18 04:22:51;;;;;;;24.88;12.07;;;;;;;;;;4962167;28;20026;-79
2022/04/18 04:25:18;;;;;;;21.70;11.52;;;;;;;;;;4979449;28;20542;-79
2022/04/18 04:27:44;;;;;;;24.85;11.05;;;;;;;;;;4978866;28;20040;-78
2022/04/18 04:30:10;;;;;;;23.40;11.35;;;;;;;;;;4967612;28;20586;-79
2022/04/18 04:32:36;;;;;;;29.48;11.82;;;;;;;;;;4976877;28;20034;-79
2022/04/18 04:35:02;;;;;;;23.58;11.10;;;;;;;;;;4965428;28;20044;-79
2022/04/18 04:37:28;;;;;;;21.63;10.70;;;;;;;;;;4958638;28;20034;-79
2022/04/18 04:39:54;;;;;;;24.98;11.38;;;;;;;;;;4975801;28;20067;-79
2022/04/18 04:42:20;;;;;;;26.92;11.23;;;;;;;;;;4981765;28;20030;-79
2022/04/18 04:44:46;;;;;;;26.55;11.48;;;;;;;;;;4976769;28;20038;-79
2022/04/18 04:47:12;;;;;;;24.90;11.63;;;;;;;;;;4961558;28;20042;-79
2022/04/18 04:49:38;;;;;;;27.58;11.15;;;;;;;;;;4965759;28;20041;-79
2022/04/18 04:52:05;;;;;;;29.33;12.18;;;;;;;;;;4977537;28;20541;-79
2022/04/18 04:54:31;;;;;;;19.60;10.45;;;;;;;;;;4977457;28;20031;-79
2022/04/18 04:56:57;;;;;;;26.10;10.85;;;;;;;;;;4978595;28;20126;-79
2022/04/18 04:59:23;;;;;;;22.85;11.15;;;;;;;;;;4968115;28;20122;-79
2022/04/18 05:01:49;;;;;;;24.38;11.02;;;;;;;;;;4966269;28;20434;-79
2022/04/18 05:04:15;;;;;;;24.65;9.73;;;;;;;;;;4965961;28;20026;-78
2022/04/18 05:06:41;;;;;;;24.88;11.13;;;;;;;;;;4977031;28;20413;-78
2022/04/18 05:09:08;;;;;;;23.25;10.43;;;;;;;;;;4979719;28;20117;-78
2022/04/18 05:11:34;;;;;;;19.92;10.93;;;;;;;;;;4965484;28;20058;-78
2022/04/18 05:14:00;;;;;;;17.95;10.10;;;;;;;;;;4968040;28;20985;-78
2022/04/18 05:16:26;;;;;;;24.13;10.00;;;;;;;;;;4960363;28;20078;-81
2022/04/18 05:18:58;;;;;;;21.30;11.07;;;;;;;;;;4964779;28;20052;-80
2022/04/18 05:21:24;;;;;;;20.63;10.50;;;;;;;;;;4983234;28;20137;-81
2022/04/18 05:23:50;;;;;;;21.52;10.40;;;;;;;;;;4964045;28;20149;-80
2022/04/18 05:26:16;;;;;;;23.25;9.70;;;;;;;;;;4982585;28;20022;-81
2022/04/18 05:28:42;;;;;;;21.52;10.48;;;;;;;;;;4986838;28;20432;-81
2022/04/18 05:31:09;;;;;;;20.10;9.68;;;;;;;;;;4981917;28;20042;-81
2022/04/18 05:33:35;;;;;;;20.20;10.75;;;;;;;;;;4980413;28;20081;-80
2022/04/18 05:36:01;;;;;;;20.92;10.05;;;;;;;;;;4967106;28;20034;-80
2022/04/18 05:38:27;;;;;;;18.20;10.23;;;;;;;;;;4976478;28;20034;-81
2022/04/18 05:40:53;;;;;;;22.48;10.32;;;;;;;;;;4960533;28;20026;-80
2022/04/18 05:43:19;;;;;;;24.08;10.20;;;;;;;;;;4963580;28;20030;-81
2022/04/18 05:45:50;;;;;;;28.10;10.27;;;;;;;;;;4965586;28;20316;-81
2022/04/18 05:48:16;;;;;;;17.50;9.13;;;;;;;;;;4957684;28;20035;-81
2022/04/18 05:50:46;;;;;;;22.55;10.68;;;;;;;;;;4966472;28;20089;-81
2022/04/18 05:53:15;;;;;;;18.20;9.68;;;;;;;;;;4978676;28;20057;-80
2022/04/18 05:55:42;;;;;;;21.30;9.98;;;;;;;;;;4957871;28;20078;-80
2022/04/18 05:58:08;;;;;;;18.33;9.60;;;;;;;;;;4963055;28;20039;-80
2022/04/18 06:00:34;;;;;;;20.60;9.52;;;;;;;;;;4976273;28;20132;-80
2022/04/18 06:03:01;;;;;;;19.73;10.05;;;;;;;;;;4976298;28;20101;-80
2022/04/18 06:05:27;;;;;;;19.20;9.88;;;;;;;;;;4975752;28;20603;-80
2022/04/18 06:07:56;;;;;;;19.73;8.85;;;;;;;;;;4971901;28;20034;-80
2022/04/18 06:10:22;;;;;;;25.27;11.55;;;;;;;;;;4979580;28;20033;-81
2022/04/18 06:12:48;;;;;;;17.25;8.35;;;;;;;;;;4964975;28;20053;-81
2022/04/18 06:15:14;;;;;;;14.27;8.48;;;;;;;;;;4978469;28;20121;-81
2022/04/18 06:17:40;;;;;;;16.40;8.85;;;;;;;;;;4979221;28;20121;-81
2022/04/18 06:20:07;;;;;;;16.70;8.68;;;;;;;;;;4983169;28;20054;-81
2022/04/18 06:22:33;;;;;;;18.75;9.40;;;;;;;;;;4977473;28;20035;-81
2022/04/18 06:24:59;;;;;;;19.58;9.40;;;;;;;;;;4963394;28;20030;-81
2022/04/18 06:27:25;;;;;;;17.35;9.85;;;;;;;;;;4977624;28;20042;-81
2022/04/18 06:29:51;;;;;;;18.73;9.10;;;;;;;;;;4965378;28;20026;-81
2022/04/18 06:32:17;;;;;;;16.75;9.00;;;;;;;;;;4977749;28;20034;-80
2022/04/18 06:34:43;;;;;;;13.60;8.35;;;;;;;;;;4965289;28;20034;-81
2022/04/18 06:37:09;;;;;;;19.80;8.90;;;;;;;;;;4984801;28;20038;-81
2022/04/18 06:39:36;;;;;;;23.63;9.48;;;;;;;;;;4981380;28;20069;-81
2022/04/18 06:42:02;;;;;;;21.13;9.43;;;;;;;;;;4982598;28;20478;-80
2022/04/18 06:44:28;;;;;;;17.05;8.68;;;;;;;;;;4962536;28;20117;-81
2022/04/18 06:46:55;;;;;;;22.45;9.23;;;;;;;;;;4974070;28;20038;-80
2022/04/18 06:49:20;;;;;;;16.80;9.25;;;;;;;;;;4966944;28;20061;-81
2022/04/18 06:51:47;;;;;;;16.35;8.77;;;;;;;;;;4975963;28;20093;-80
2022/04/18 06:54:12;;;;;;;12.85;8.43;;;;;;;;;;4982381;28;20034;-80
2022/04/18 06:59:23;;;;;;;17.38;8.85;;;;;;;;;;4980329;28;20508;-81
2022/04/18 07:01:49;;;;;;;15.43;8.13;;;;;;;;;;4982395;28;20038;-81
2022/04/18 07:04:15;;;;;;;18.58;8.13;;;;;;;;;;4966046;28;20030;-81
2022/04/18 07:06:41;;;;;;;15.68;8.30;;;;;;;;;;4975618;28;20022;-81
2022/04/18 07:09:08;;;;;;;14.98;8.63;;;;;;;;;;4980731;28;20038;-80
2022/04/18 07:11:35;;;;;;;17.65;8.75;;;;;;;;;;4972971;28;20531;-81
2022/04/18 07:14:01;;;;;;;15.65;8.30;;;;;;;;;;4967904;28;20038;-81
2022/04/18 07:16:29;;;;;;;13.40;8.25;;;;;;;;;;4977775;28;20113;-80
2022/04/18 07:18:57;;;;;;;14.77;7.70;;;;;;;;;;4983363;28;20112;-80
2022/04/18 07:21:24;;;;;;;14.40;8.50;;;;;;;;;;4975370;28;20035;-80
2022/04/18 07:23:50;;;;;;;15.35;8.27;;;;;;;;;;4980703;28;20026;-80
2022/04/18 07:26:16;;;;;;;15.48;8.85;;;;;;;;;;4965120;28;20037;-81
2022/04/18 07:28:42;;;;;;;15.40;8.77;;;;;;;;;;4986740;28;20093;-81
2022/04/18 07:31:08;;;;;;;17.83;8.43;;;;;;;;;;4984607;28;20063;-80
2022/04/18 07:33:35;;;;;;;17.30;8.82;;;;;;;;;;4962177;28;20034;-80
2022/04/18 07:36:02;;;;;;;13.52;8.45;;;;;;;;;;4975481;28;20398;-80
2022/04/18 07:41:14;;;;;;;19.15;9.15;;;;;;;;;;4980172;28;20088;-81
2022/04/18 07:43:40;;;;;;;14.77;9.10;;;;;;;;;;4976532;28;20031;-81
2022/04/18 07:46:07;;;;;;;19.60;9.65;;;;;;;;;;4962166;28;20038;-81
2022/04/18 07:48:34;;;;;;;20.23;9.07;;;;;;;;;;4980975;28;20687;-81
2022/04/18 07:53:45;;;;;;;22.83;9.38;;;;;;;;;;4977509;28;20396;-81
2022/04/18 07:56:11;;;;;;;17.08;9.75;;;;;;;;;;4973941;28;20438;-80
2022/04/18 07:58:37;;;;;;;19.17;10.75;;;;;;;;;;4964931;28;20038;-80
2022/04/18 08:01:03;;;;;;;15.90;9.40;;;;;;;;;;4975449;28;20681;-81
2022/04/18 08:03:33;;;;;;;15.90;8.73;;;;;;;;;;4962250;28;20599;-81
2022/04/18 08:05:59;;;;;;;21.45;8.63;;;;;;;;;;4973901;28;20457;-81
2022/04/18 08:08:25;;;;;;;14.38;8.65;;;;;;;;;;4973390;28;20883;-81
2022/04/18 08:10:51;;;;;;;14.68;8.52;;;;;;;;;;4959596;28;20221;-81
2022/04/18 08:13:17;;;;;;;11.82;7.60;;;;;;;;;;4977677;28;20054;-79
2022/04/18 08:15:43;;;;;;;15.90;8.32;;;;;;;;;;4978605;28;20030;-80
2022/04/18 08:18:10;;;;;;;13.15;8.18;;;;;;;;;;4966009;28;20553;-80
2022/04/18 08:20:36;;;;;;;16.60;8.13;;;;;;;;;;4981247;28;20539;-80
2022/04/18 08:23:02;;;;;;;13.48;8.23;;;;;;;;;;4956956;28;20138;-80
2022/04/18 08:25:28;;;;;;;12.07;7.40;;;;;;;;;;4960284;28;20034;-80
2022/04/18 08:27:54;;;;;;;12.75;8.40;;;;;;;;;;4979729;28;20045;-80
2022/04/18 08:30:20;;;;;;;13.55;7.93;;;;;;;;;;4964102;28;20034;-79
2022/04/18 08:32:46;;;;;;;16.15;9.13;;;;;;;;;;4970084;28;20085;-80
2022/04/18 08:35:12;;;;;;;28.80;14.52;;;;;;;;;;4979015;28;20595;-79
2022/04/18 08:37:38;;;;;;;18.08;9.45;;;;;;;;;;4954779;28;20121;-78
2022/04/18 08:40:05;;;;;;;16.02;8.32;;;;;;;;;;4957263;28;20465;-78
2022/04/18 08:42:34;;;;;;;17.25;9.38;;;;;;;;;;4977830;28;20105;-79
2022/04/18 08:45:01;;;;;;;17.98;9.05;;;;;;;;;;4976458;28;20039;-78
2022/04/18 08:52:57;;;;;;;16.92;9.27;;;;;;;;;;4976350;28;20112;-78
2022/04/18 08:55:23;;;;;;;14.77;8.25;;;;;;;;;;4975529;28;20053;-78
2022/04/18 08:57:49;;;;;;;18.58;11.45;;;;;;;;;;4962484;28;20046;-78
2022/04/18 09:00:16;;;;;;;14.75;9.18;;;;;;;;;;4959382;28;20030;-78
2022/04/18 09:02:42;;;;;;;15.85;8.02;;;;;;;;;;4975119;28;20022;-79
2022/04/18 09:05:12;;;;;;;19.38;9.13;;;;;;;;;;4969524;28;20094;-81
2022/04/18 09:07:42;;;;;;;12.75;7.68;;;;;;;;;;4969558;28;20033;-81
2022/04/18 09:10:08;;;;;;;13.77;8.48;;;;;;;;;;4973079;28;20090;-81
2022/04/18 09:12:34;;;;;;;13.95;8.68;;;;;;;;;;4957118;28;20034;-79
2022/04/18 09:15:08;;;;;;;13.05;7.85;;;;;;;;;;4975775;28;20052;-79
2022/04/18 09:17:35;;;;;;;12.15;7.88;;;;;;;;;;4975221;28;20026;-78
2022/04/18 09:20:11;;;;;;;11.85;7.85;;;;;;;;;;4974692;28;20121;-79
2022/04/18 09:22:56;;;;;;;13.82;8.90;;;;;;;;;;4976953;28;21822;-78
2022/04/18 09:25:23;;;;;;;12.40;7.80;;;;;;;;;;4975180;28;21754;-78
2022/04/18 09:27:59;;;;;;;14.15;7.95;;;;;;;;;;4959450;28;20042;-78
2022/04/18 09:30:34;;;;;;;11.40;7.13;;;;;;;;;;4971582;28;20050;-78
2022/04/18 09:33:01;;;;;;;17.40;8.15;;;;;;;;;;4974556;28;20034;-79
2022/04/18 09:35:28;;;;;;;10.90;7.53;;;;;;;;;;4959491;28;20521;-78
2022/04/18 09:37:59;;;;;;;11.55;7.80;;;;;;;;;;4974065;28;20045;-79
2022/04/18 09:40:25;;;;;;;17.27;8.60;;;;;;;;;;4976429;28;20809;-79
2022/04/18 09:42:53;;;;;;;14.38;7.28;;;;;;;;;;4955465;28;20113;-79
2022/04/18 09:45:19;;;;;;;17.67;9.00;;;;;;;;;;4980381;28;20038;-80
2022/04/18 09:47:53;;;;;;;21.85;12.90;;;;;;;;;;4959081;28;20747;-80
2022/04/18 09:53:05;;;;;;;13.70;7.55;;;;;;;;;;4970816;28;20041;-80
2022/04/18 09:55:31;;;;;;;10.88;7.78;;;;;;;;;;4961414;28;20035;-79
2022/04/18 09:58:03;;;;;;;14.20;8.23;;;;;;;;;;4961748;28;20141;-81
2022/04/18 10:00:29;;;;;;;12.00;8.73;;;;;;;;;;4971577;28;20037;-81
2022/04/18 10:02:56;;;;;;;11.73;7.43;;;;;;;;;;4977761;28;20728;-79
2022/04/18 10:05:22;;;;;;;10.75;7.18;;;;;;;;;;4957878;28;20812;-81
2022/04/18 10:07:49;;;;;;;13.15;7.35;;;;;;;;;;4981133;28;20831;-81
2022/04/18 10:10:15;;;;;;;9.77;6.85;;;;;;;;;;4965082;28;20089;-82
2022/04/18 10:12:41;;;;;;;11.02;7.45;;;;;;;;;;4979537;28;20861;-80
2022/04/18 10:15:07;;;;;;;9.13;6.55;;;;;;;;;;4980045;28;20038;-81
2022/04/18 10:17:35;;;;;;;8.95;6.68;;;;;;;;;;4962386;28;20125;-82
2022/04/18 10:20:17;;;;;;;9.20;6.95;;;;;;;;;;4981193;28;20507;-80
2022/04/18 10:22:43;;;;;;;11.25;7.10;;;;;;;;;;4976442;28;20117;-81
2022/04/18 10:25:25;;;;;;;10.45;7.88;;;;;;;;;;4977799;28;20510;-81
2022/04/18 10:28:01;;;;;;;11.23;7.32;;;;;;;;;;4980716;28;20816;-81
2022/04/18 10:30:27;;;;;;;13.95;6.80;;;;;;;;;;4977153;28;20069;-81
2022/04/18 10:32:54;;;;;;;9.95;6.30;;;;;;;;;;4961621;28;20498;-81
2022/04/18 10:35:23;;;;;;;9.00;6.55;;;;;;;;;;4964041;28;20030;-80
2022/04/18 10:37:52;;;;;;;10.40;7.25;;;;;;;;;;4977444;28;20457;-81
2022/04/18 10:40:19;;;;;;;9.30;6.40;;;;;;;;;;4960865;28;20121;-80
2022/04/18 10:42:45;;;;;;;11.93;6.35;;;;;;;;;;4974229;28;20031;-80
2022/04/18 10:45:12;;;;;;;10.63;5.75;;;;;;;;;;4979094;28;20077;-80
2022/04/18 10:47:58;;;;;;;7.80;5.75;;;;;;;;;;4977180;28;20073;-80
2022/04/18 10:50:24;;;;;;;;;;;;;;;;;;4977823;28;20118;-80
2022/04/18 10:52:50;;;;;;;;;;;;;;;;;;4980895;28;20016;-80
2022/04/18 10:55:20;;;;;;;6.93;4.78;;;;;;;;;;4962778;28;19914;-81
2022/04/18 10:58:06;;;;;;;6.03;4.45;;;;;;;;;;4981249;28;20028;-81
2022/04/18 11:00:32;;;;;;;;;;;;;;;;;;4967011;28;20030;-80
2022/04/18 11:02:57;;;;;;;;;;;;;;;;;;4965681;28;20717;-80
2022/04/18 11:05:23;;;;;;;;;;;;;;;;;;4976481;28;19948;-80
2022/04/18 11:07:49;;;;;;;;;;;;;;;;;;4960256;28;19917;-83
2022/04/18 11:10:15;;;;;;;;;;;;;;;;;;4976820;28;19913;-83
2022/04/18 11:12:41;;;;;;;;;;;;;;;;;;4975590;28;19913;-83
2022/04/18 11:15:14;;;;;;;;;;;;;;;;;;4962595;28;19936;-83
2022/04/18 11:17:40;;;;;;;;;;;;;;;;;;4976414;28;20067;-80
2022/04/18 11:20:06;;;;;;;;;;;;;;;;;;4978364;28;19922;-80
2022/04/18 11:22:32;;;;;;;;;;;;;;;;;;4982650;28;20007;-80
2022/04/18 11:24:59;;;;;;;;;;;;;;;;;;4978582;28;19960;-80
2022/04/18 11:27:25;;;;;;;;;;;;;;;;;;4984175;28;19910;-80
2022/04/18 11:29:51;;;;;;;;;;;;;;;;;;4979802;28;19914;-81
2022/04/18 11:32:17;;;;;;;;;;;;;;;;;;4981150;28;19917;-80
2022/04/18 11:34:43;;;;;;;;;;;;;;;;;;4979627;28;20534;-80
2022/04/18 11:37:10;;;;;;;;;;;;;;;;;;4975848;28;19933;-80
2022/04/18 11:39:36;;;;;;;;;;;;;;;;;;4969823;28;20000;-80
2022/04/18 11:42:02;;;;;;;;;;;;;;;;;;4964343;28;19936;-80
2022/04/18 11:44:28;;;;;;;;;;;;;;;;;;4959738;28;19905;-79
2022/04/18 11:46:54;;;;;;;;;;;;;;;;;;4973662;28;19921;-81
2022/04/18 11:49:20;;;;;;;;;;;;;;;;;;4961307;28;19936;-80
2022/04/18 11:51:50;;;;;;;;;;;;;;;;;;4975888;28;19956;-80
2022/04/18 11:54:16;;;;;;;;;;;;;;;;;;4959970;28;19945;-80
2022/04/18 11:56:42;;;;;;;;;;;;;;;;;;4977125;28;19996;-80
2022/04/18 11:59:08;;;;;;;;;;;;;;;;;;4981516;28;19917;-80
2022/04/18 12:07:03;;;;;;;;;;;;;;;;;;4975727;28;19921;-80
2022/04/18 12:09:31;;;;;;;;;;;;;;;;;;4970070;28;19918;-80
2022/04/18 12:11:58;;;;;;;;;;;;;;;;;;4954067;28;20315;-80
2022/04/18 12:14:24;;;;;;;;;;;;;;;;;;4960934;28;20726;-80
2022/04/18 12:16:50;;;;;;;;;;;;;;;;;;4972571;28;19914;-80
2022/04/18 12:19:16;;;;;;;;;;;;;;;;;;4978641;28;20293;-79
2022/04/18 12:21:41;;;;;;;;;;;;;;;;;;4961075;28;19960;-80
2022/04/18 12:24:08;;;;;;;;;;;;;;;;;;4968634;28;19957;-80
2022/04/18 12:26:34;;;;;;;;;;;;;;;;;;4961396;28;20504;-80
2022/04/18 12:29:00;;;;;;;;;;;;;;;;;;4979245;28;19948;-80
2022/04/18 12:31:26;;;;;;;;;;;;;;;;;;4958935;28;19941;-80
2022/04/18 12:33:52;;;;;;;;;;;;;;;;;;4968689;28;19909;-80
2022/04/18 12:36:18;;;;;;;;;;;;;;;;;;4965987;28;19940;-80
2022/04/18 12:38:44;;;;;;;;;;;;;;;;;;4967634;28;19914;-80
2022/04/18 12:41:10;;;;;;;;;;;;;;;;;;4973385;28;19919;-80
2022/04/18 12:43:37;;;;;;;;;;;;;;;;;;4979742;28;19984;-79
2022/04/18 12:46:04;;;;;;;;;;;;;;;;;;4976377;28;19917;-79
2022/04/18 12:48:30;;;;;;;;;;;;;;;;;;4968968;28;19964;-80
2022/04/18 12:50:55;;;;;;;;;;;;;;;;;;4960741;28;19917;-80
2022/04/18 12:53:21;;;;;;;;;;;;;;;;;;4978642;28;19917;-80
2022/04/18 12:55:47;;;;;;;;;;;;;;;;;;4958811;28;20186;-80
2022/04/18 12:58:13;;;;;;;;;;;;;;;;;;4963564;28;19920;-80
2022/04/18 13:00:39;;;;;;;;;;;;;;;;;;4972307;28;19996;-80
2022/04/18 13:03:05;;;;;;;;;;;;;;;;;;4956949;28;19914;-80
2022/04/18 13:05:31;;;;;;;;;;;;;;;;;;4973641;28;19913;-80
2022/04/18 13:07:57;;;;;;;;;;;;;;;;;;4959766;28;19960;-80
2022/04/18 13:10:23;;;;;;;;;;;;;;;;;;4959515;28;19906;-80
2022/04/18 13:12:49;;;;;;;;;;;;;;;;;;4980369;28;19918;-80
2022/04/18 13:15:15;;;;;;;;;;;;;;;;;;4972155;28;20325;-80
2022/04/18 13:17:41;;;;;;;;;;;;;;;;;;4971538;28;19922;-80
2022/04/18 13:20:07;;;;;;;;;;;;;;;;;;4980405;28;19922;-80
2022/04/18 13:22:32;;;;;;;;;;;;;;;;;;4957799;28;20012;-80
2022/04/18 13:24:58;;;;;;;;;;;;;;;;;;4975309;28;19979;-80
2022/04/18 13:27:24;;;;;;;;;;;;;;;;;;4960859;28;19914;-80
2022/04/18 13:29:50;;;;;;;;;;;;;;;;;;4978354;28;19953;-80
2022/04/18 13:32:16;;;;;;;;;;;;;;;;;;4964271;28;19909;-80
2022/04/18 13:34:42;;;;;;;;;;;;;;;;;;4969998;28;19910;-80
2022/04/18 13:37:08;;;;;;;;;;;;;;;;;;4967912;28;19925;-80
2022/04/18 13:39:34;;;;;;;;;;;;;;;;;;4966714;28;20334;-80
2022/04/18 13:42:00;;;;;;;;;;;;;;;;;;4981175;28;20309;-80
2022/04/18 13:44:26;;;;;;;;;;;;;;;;;;4979240;28;19917;-81
2022/04/18 13:46:52;;;;;;;;;;;;;;;;;;4960795;28;19913;-80
2022/04/18 13:49:18;;;;;;;;;;;;;;;;;;4962447;28;19925;-80
2022/04/18 13:51:44;;;;;;;;;;;;;;;;;;4966436;28;19968;-80
2022/04/18 13:54:10;;;;;;;;;;;;;;;;;;4960495;28;19918;-80
2022/04/18 13:56:37;;;;;;;;;;;;;;;;;;4965364;28;19960;-80
2022/04/18 13:59:03;;;;;;;;;;;;;;;;;;4973454;28;19953;-80
2022/04/18 14:01:30;;;;;;;;;;;;;;;;;;4973484;28;20277;-80
2022/04/18 14:03:56;;;;;;;;;;;;;;;;;;4976467;28;19913;-81
2022/04/18 14:06:26;;;;;;;;;;;;;;;;;;4980973;28;19910;-81
2022/04/18 14:08:52;;;;;;;;;;;;;;;;;;4964436;28;19910;-81
2022/04/18 14:11:18;;;;;;;;;;;;;;;;;;4964741;28;19968;-81
2022/04/18 14:13:44;;;;;;;;;;;;;;;;;;4961914;28;19929;-80
2022/04/18 14:21:40;;;;;;;;;;;;;;;;;;4974762;28;20060;-81
2022/04/18 14:24:05;;;;;;;;;;;;;;;;;;4963552;28;20008;-81
2022/04/18 14:26:31;;;;;;;;;;;;;;;;;;4978355;28;20040;-80
2022/04/18 14:28:58;;;;;;;;;;;;;;;;;;4962498;28;19914;-80
2022/04/18 14:31:24;;;;;;;;;;;;;;;;;;4963370;28;19921;-80
2022/04/18 14:33:50;;;;;;;;;;;;;;;;;;4979650;28;19914;-80
2022/04/18 14:36:19;;;;;;;;;;;;;;;;;;4975511;28;19914;-80
2022/04/18 14:38:45;;;;;;;;;;;;;;;;;;4964229;28;19953;-81
2022/04/18 14:41:10;;;;;;;;;;;;;;;;;;4983220;28;20613;-81
2022/04/18 14:43:36;;;;;;;;;;;;;;;;;;4966492;28;19988;-81
2022/04/18 14:46:02;;;;;;;;;;;;;;;;;;4982261;28;19929;-80
2022/04/18 14:48:28;;;;;;;;;;;;;;;;;;4977484;28;20085;-81
2022/04/18 14:50:54;;;;;;;;;;;;;;;;;;4961131;28;19937;-80
2022/04/18 14:53:20;;;;;;;;;;;;;;;;;;4960675;28;19918;-80
2022/04/18 14:55:53;;;;;;;;;;;;;;;;;;4959768;28;19922;-81
2022/04/18 14:58:19;;;;;;;;;;;;;;;;;;4967125;28;19925;-82
2022/04/18 15:00:44;;;;;;;;;;;;;;;;;;4980133;28;20369;-82
2022/04/18 15:03:10;;;;;;;;;;;;;;;;;;4965976;28;19916;-82
2022/04/18 15:05:36;;;;;;;;;;;;;;;;;;4960018;28;19925;-81
2022/04/18 15:08:02;;;;;;;;;;;;;;;;;;4980918;28;19914;-81
2022/04/18 15:10:28;;;;;;;;;;;;;;;;;;4962825;28;19921;-81
2022/04/18 15:12:54;;;;;;;;;;;;;;;;;;4964422;28;19956;-82
2022/04/18 15:15:22;;;;;;;;;;;;;;;;;;4979408;28;19909;-81
2022/04/18 15:17:48;;;;;;;;;;;;;;;;;;4979791;28;19922;-81
2022/04/18 15:20:14;;;;;;;;;;;;;;;;;;4977482;28;19916;-81
2022/04/18 15:22:40;;;;;;;;;;;;;;;;;;4962182;28;19960;-82
2022/04/18 15:25:06;;;;;;;;;;;;;;;;;;4975497;28;19913;-82
2022/04/18 15:27:32;;;;;;;;;;;;;;;;;;4963330;28;19936;-82
2022/04/18 15:32:42;;;;;;;;;;;;;;;;;;4976207;28;19976;-82
2022/04/18 15:35:08;;;;;;;;;;;;;;;;;;4968117;28;20004;-82
2022/04/18 15:37:34;;;;;;;;;;;;;;;;;;4974578;28;19928;-82
2022/04/18 15:40:00;;;;;;;;;;;;;;;;;;4976185;28;19914;-82
2022/04/18 15:42:26;;;;;;;;;;;;;;;;;;4963383;28;20540;-82
2022/04/18 15:44:55;;;;;;;;;;;;;;;;;;4962904;28;19914;-82